Time;durP1;ratioP1;P1;durP2;ratioP2;P2;SDS_P1;SDS_P2;PMS_P1;PMS_P2;Temp;Humidity;BMP_temperature;BMP_pressure;BME280_temperature;BME280_humidity;BME280_pressure;Samples;Min_cycle;Max_cycle;Signal;HPM_P1;HPM_P2
2023/01/09 00:01:30;;;;;;;4.40;1.65;;;;;;;2.06;100.00;91454.06;5032156;28;20083;-77
2023/01/09 00:03:55;;;;;;;3.13;1.70;;;;;;;2.09;100.00;91453.53;5028440;28;20040;-77
2023/01/09 00:06:21;;;;;;;192.07;5.35;;;;;;;2.11;100.00;91451.47;5013714;28;20058;-78
2023/01/09 00:08:48;;;;;;;341.63;7.88;;;;;;;2.21;100.00;91463.63;4996090;28;20121;-78
2023/01/09 00:11:14;;;;;;;800.78;17.38;;;;;;;2.09;100.00;91456.13;5032837;28;20553;-77
2023/01/09 00:13:40;;;;;;;433.55;9.60;;;;;;;1.99;100.00;91449.16;5033888;28;20041;-77
2023/01/09 00:16:26;;;;;;;325.05;7.75;;;;;;;1.97;100.00;91450.47;5033516;28;20029;-78
2023/01/09 00:18:52;;;;;;;43.90;3.63;;;;;;;1.94;100.00;91456.16;5033366;28;20030;-77
2023/01/09 00:21:18;;;;;;;11.23;2.20;;;;;;;1.95;100.00;91455.88;5021334;28;20107;-77
2023/01/09 00:23:44;;;;;;;1.88;1.27;;;;;;;1.97;100.00;91453.03;5017415;28;20455;-77
2023/01/09 00:26:16;;;;;;;2.42;1.20;;;;;;;1.99;100.00;91444.00;5036156;28;20119;-77
2023/01/09 00:28:44;;;;;;;2.95;1.50;;;;;;;1.98;100.00;91431.34;5037212;28;20060;-77
2023/01/09 00:31:10;;;;;;;2.58;1.60;;;;;;;2.00;100.00;91434.44;5036958;28;20476;-77
2023/01/09 00:34:03;;;;;;;2.17;1.50;;;;;;;2.01;100.00;91421.28;5023485;28;20038;-77
2023/01/09 00:36:29;;;;;;;1.45;1.08;;;;;;;2.00;100.00;91419.72;5016614;28;20045;-77
2023/01/09 00:38:55;;;;;;;221.30;5.95;;;;;;;2.01;100.00;91415.38;5021550;28;20017;-77
2023/01/09 00:41:31;;;;;;;660.60;15.57;;;;;;;1.88;100.00;91414.84;5035763;28;20049;-77
2023/01/09 00:44:06;;;;;;;150.02;4.88;;;;;;;1.93;100.00;91415.88;5035386;28;20037;-77
2023/01/09 00:46:36;;;;;;;229.95;5.43;;;;;;;1.90;100.00;91406.84;5036571;28;20056;-78
2023/01/09 00:49:06;;;;;;;474.33;10.10;;;;;;;1.79;100.00;91403.50;5036436;28;20029;-77
2023/01/09 00:51:31;;;;;;;445.98;9.15;;;;;;;1.78;100.00;91407.13;5036208;28;20025;-77
2023/01/09 00:53:57;;;;;;;162.23;4.53;;;;;;;1.81;100.00;91406.59;5034095;28;20380;-77
2023/01/09 00:56:24;;;;;;;207.02;4.70;;;;;;;1.80;100.00;91407.63;5034496;28;20045;-76
2023/01/09 00:58:51;;;;;;;272.02;6.07;;;;;;;1.78;100.00;91407.13;5035795;28;20038;-77
2023/01/09 01:01:17;;;;;;;67.22;3.30;;;;;;;1.77;100.00;91405.56;5035396;28;20034;-78
2023/01/09 01:03:42;;;;;;;6.53;3.20;;;;;;;1.78;100.00;91411.47;5022337;28;20090;-78
2023/01/09 01:08:54;;;;;;;3.65;2.03;;;;;;;1.79;100.00;91393.16;5035100;28;20053;-78
2023/01/09 01:11:20;;;;;;;3.83;2.15;;;;;;;1.83;100.00;91389.03;5034356;28;20083;-77
2023/01/09 01:13:47;;;;;;;3.70;2.10;;;;;;;1.87;100.00;91384.91;5036299;28;20128;-78
2023/01/09 01:16:13;;;;;;;3.55;1.80;;;;;;;1.87;100.00;91379.75;5036611;28;20068;-78
2023/01/09 01:18:39;;;;;;;2.45;1.48;;;;;;;1.94;100.00;91382.06;5034652;28;20017;-78
2023/01/09 01:21:09;;;;;;;2.10;1.30;;;;;;;1.96;100.00;91379.22;5035800;28;20037;-78
2023/01/09 01:23:36;;;;;;;2.30;1.30;;;;;;;1.97;100.00;91367.88;5034672;28;20034;-78
2023/01/09 01:26:11;;;;;;;2.00;1.30;;;;;;;1.98;100.00;91357.28;5026397;28;20435;-78
2023/01/09 01:28:38;;;;;;;298.38;6.28;;;;;;;1.87;100.00;91353.94;5015355;28;20147;-78
2023/01/09 01:31:05;;;;;;;32.28;2.67;;;;;;;1.94;100.00;91345.16;5020576;28;20068;-78
2023/01/09 01:33:31;;;;;;;87.88;3.97;;;;;;;1.96;100.00;91336.13;5033284;28;20044;-77
2023/01/09 01:36:35;;;;;;;13.02;2.22;;;;;;;1.99;100.00;91333.00;5035382;28;20036;-77
2023/01/09 01:39:01;;;;;;;6.80;2.20;;;;;;;1.96;100.00;91320.63;5035712;28;20112;-77
2023/01/09 01:41:29;;;;;;;235.15;5.75;;;;;;;1.97;100.00;91326.56;5033292;28;20157;-77
2023/01/09 01:43:58;;;;;;;81.53;3.35;;;;;;;2.06;100.00;91325.00;5035219;28;20476;-77
2023/01/09 01:46:24;;;;;;;29.13;2.38;;;;;;;2.03;100.00;91320.38;5035132;28;20053;-77
2023/01/09 01:49:00;;;;;;;16.85;2.50;;;;;;;1.99;100.00;91314.19;5017602;28;20044;-78
2023/01/09 01:51:29;;;;;;;3.90;1.73;;;;;;;1.97;100.00;91308.50;5035813;28;20041;-78
2023/01/09 01:53:59;;;;;;;2.38;1.40;;;;;;;1.96;100.00;91327.59;5034095;28;20033;-78
2023/01/09 01:56:34;;;;;;;4.22;1.70;;;;;;;1.96;100.00;91325.00;5033336;28;20492;-78
2023/01/09 01:59:10;;;;;;;4.07;1.55;;;;;;;1.96;100.00;91322.44;5034725;28;20037;-78
2023/01/09 02:01:39;;;;;;;4.53;1.92;;;;;;;1.94;100.00;91309.81;5034504;28;20052;-78
2023/01/09 02:04:06;;;;;;;4.05;2.00;;;;;;;1.98;100.00;91312.63;5033995;28;20476;-78
2023/01/09 02:06:33;;;;;;;3.40;1.73;;;;;;;2.01;100.00;91307.72;5033636;28;20029;-78
2023/01/09 02:09:02;;;;;;;3.50;1.70;;;;;;;2.02;100.00;91311.81;5034632;28;20110;-78
2023/01/09 02:11:28;;;;;;;14.57;5.05;;;;;;;2.01;100.00;91307.72;5032520;28;20048;-78
2023/01/09 02:13:53;;;;;;;10.88;3.50;;;;;;;2.04;100.00;91321.91;5035018;28;20463;-78
2023/01/09 02:17:04;;;;;;;6.18;2.40;;;;;;;2.07;100.00;91321.38;5034868;28;20384;-78
2023/01/09 02:19:41;;;;;;;1.98;1.40;;;;;;;2.09;100.00;91324.47;5034266;28;20077;-78
2023/01/09 02:22:33;;;;;;;3.95;1.42;;;;;;;2.12;100.00;91323.97;5035269;28;20159;-78
2023/01/09 02:25:08;;;;;;;2.28;1.20;;;;;;;2.12;100.00;91329.13;5027916;28;20041;-78
2023/01/09 02:28:03;;;;;;;1.92;1.30;;;;;;;2.15;100.00;91335.56;5014467;28;20041;-78
2023/01/09 02:30:45;;;;;;;1.45;1.10;;;;;;;2.16;100.00;91324.19;5029784;28;20409;-78
2023/01/09 02:33:11;;;;;;;1.40;1.00;;;;;;;2.15;100.00;91328.59;5015330;28;20057;-78
2023/01/09 02:35:45;;;;;;;1.38;1.10;;;;;;;2.16;100.00;91337.91;5016007;28;20033;-77
2023/01/09 02:38:29;;;;;;;1.08;0.90;;;;;;;2.16;100.00;91335.31;4997191;28;20034;-78
2023/01/09 02:41:13;;;;;;;0.75;0.70;;;;;;;2.19;100.00;91331.44;5025652;28;20037;-78
2023/01/09 02:43:40;;;;;;;0.68;0.68;;;;;;;2.18;100.00;91322.88;5034325;28;20475;-77
2023/01/09 02:46:18;;;;;;;0.80;0.80;;;;;;;2.17;100.00;91305.84;5033612;28;20060;-78
2023/01/09 02:48:45;;;;;;;2.67;1.55;;;;;;;2.23;100.00;91315.16;5034542;28;20083;-78
2023/01/09 02:51:28;;;;;;;173.50;4.45;;;;;;;2.23;100.00;91309.97;5033198;28;20095;-78
2023/01/09 02:53:56;;;;;;;27.33;2.05;;;;;;;2.16;100.00;91304.31;5018318;28;20044;-78
2023/01/09 02:56:56;;;;;;;33.17;2.40;;;;;;;2.10;100.00;91302.78;5032514;28;20081;-78
2023/01/09 02:59:48;;;;;;;126.45;3.70;;;;;;;2.12;100.00;91298.13;5034099;28;20125;-78
2023/01/09 03:02:36;;;;;;;95.18;3.30;;;;;;;2.00;100.00;91301.00;5034049;28;20034;-78
2023/01/09 03:05:12;;;;;;;28.40;2.15;;;;;;;2.04;100.00;91296.84;5032034;28;20069;-78
2023/01/09 03:08:00;;;;;;;3.40;1.85;;;;;;;1.99;100.00;91288.38;5032380;28;20034;-78
2023/01/09 03:10:47;;;;;;;4.72;2.67;;;;;;;1.97;100.00;91286.03;5015813;28;20033;-78
2023/01/09 03:13:17;;;;;;;8.27;2.55;;;;;;;1.96;100.00;91278.56;5034287;28;20037;-78
2023/01/09 03:15:48;;;;;;;6.68;3.28;;;;;;;1.97;100.00;91280.88;5034506;28;20123;-77
2023/01/09 03:18:21;;;;;;;4.18;2.22;;;;;;;1.97;100.00;91270.56;5041557;28;20033;-77
2023/01/09 03:20:48;;;;;;;2.95;1.70;;;;;;;2.02;100.00;91267.19;5041027;28;20041;-77
2023/01/09 03:23:15;;;;;;;3.13;1.65;;;;;;;2.06;100.00;91271.56;5037031;28;20033;-78
2023/01/09 03:25:40;;;;;;;4.82;1.73;;;;;;;2.08;100.00;91271.31;5029171;28;20044;-78
2023/01/09 03:28:10;;;;;;;2.58;1.60;;;;;;;2.12;100.00;91262.00;5032732;28;20030;-77
2023/01/09 03:30:36;;;;;;;2.42;1.50;;;;;;;2.15;100.00;91258.09;5032199;28;20041;-78
2023/01/09 03:33:02;;;;;;;2.65;1.70;;;;;;;2.16;100.00;91234.63;5025856;28;20041;-77
2023/01/09 03:35:28;;;;;;;2.85;1.73;;;;;;;2.19;100.00;91230.72;5029105;28;20096;-77
2023/01/09 03:37:54;;;;;;;2.33;1.50;;;;;;;2.19;100.00;91225.56;5032631;28;20046;-77
2023/01/09 03:40:20;;;;;;;233.13;5.53;;;;;;;2.31;100.00;91235.56;5032234;28;20491;-78
2023/01/09 03:42:46;;;;;;;374.55;7.57;;;;;;;2.35;100.00;91246.94;5031118;28;20407;-78
2023/01/09 03:45:13;;;;;;;122.38;3.70;;;;;;;2.29;100.00;91254.66;5031658;28;20037;-77
2023/01/09 03:47:39;;;;;;;272.98;6.50;;;;;;;2.20;100.00;91253.69;5030932;28;20500;-77
2023/01/09 03:50:05;;;;;;;29.40;2.55;;;;;;;2.15;100.00;91253.72;5032300;28;20044;-78
2023/01/09 03:52:31;;;;;;;31.92;3.22;;;;;;;2.07;100.00;91238.75;5031375;28;20030;-77
2023/01/09 03:54:57;;;;;;;14.63;2.97;;;;;;;2.12;100.00;91236.19;5031746;28;20089;-78
2023/01/09 03:57:25;;;;;;;4.55;2.63;;;;;;;2.12;100.00;91227.63;5034841;28;20116;-77
2023/01/09 03:59:51;;;;;;;5.93;3.03;;;;;;;2.12;100.00;91225.06;5036371;28;20048;-77
2023/01/09 04:02:17;;;;;;;6.25;2.25;;;;;;;2.15;100.00;91230.47;5036612;28;20033;-78
2023/01/09 04:04:42;;;;;;;3.47;1.80;;;;;;;2.20;100.00;91235.59;5035732;28;20033;-78
2023/01/09 04:07:08;;;;;;;4.10;2.25;;;;;;;2.31;100.00;91238.94;5026876;28;20531;-77
2023/01/09 04:09:34;;;;;;;6.68;3.83;;;;;;;2.29;100.00;91238.41;5018012;28;20060;-77
2023/01/09 04:11:59;;;;;;;5.97;2.90;;;;;;;2.27;100.00;91249.03;5037038;28;20453;-78
2023/01/09 04:14:25;;;;;;;3.97;2.10;;;;;;;2.27;100.00;91241.28;5036717;28;20042;-77
2023/01/09 04:16:50;;;;;;;6.05;2.40;;;;;;;2.29;100.00;91241.75;5034706;28;20032;-78
2023/01/09 04:19:16;;;;;;;3.47;1.85;;;;;;;2.27;100.00;91248.22;5035813;28;20503;-78
2023/01/09 04:21:41;;;;;;;2.67;1.42;;;;;;;2.27;100.00;91258.56;5036073;28;20049;-78
2023/01/09 04:24:08;;;;;;;1.92;1.23;;;;;;;2.27;100.00;91256.78;5035945;28;20038;-78
2023/01/09 04:26:34;;;;;;;1.85;1.25;;;;;;;2.27;100.00;91259.34;5035692;28;20033;-78
2023/01/09 04:28:59;;;;;;;1.88;1.27;;;;;;;2.29;100.00;91257.25;5036022;28;20056;-78
2023/01/09 04:31:25;;;;;;;1.10;1.00;;;;;;;2.30;100.00;91252.88;5036382;28;20110;-78
2023/01/09 04:33:51;;;;;;;0.70;0.70;;;;;;;2.35;100.00;91255.44;5034959;28;20144;-78
2023/01/09 04:36:16;;;;;;;1.52;1.00;;;;;;;2.36;100.00;91251.03;5034547;28;20028;-77
2023/01/09 04:38:42;;;;;;;4.70;2.65;;;;;;;2.43;100.00;91256.69;5033469;28;20046;-77
2023/01/09 04:41:08;;;;;;;305.15;7.13;;;;;;;2.39;100.00;91255.69;5035657;28;20037;-77
2023/01/09 04:43:33;;;;;;;2.00;1.40;;;;;;;2.37;100.00;91250.00;5036191;28;20095;-78
2023/01/09 04:45:59;;;;;;;1.60;1.13;;;;;;;2.31;100.00;91243.31;5037713;28;20043;-78
2023/01/09 04:48:24;;;;;;;1.73;1.10;;;;;;;2.24;100.00;91248.78;5041785;28;20120;-78
2023/01/09 04:50:50;;;;;;;298.88;7.00;;;;;;;2.23;100.00;91255.75;5040901;28;20061;-78
2023/01/09 04:53:17;;;;;;;121.22;3.85;;;;;;;2.20;100.00;91253.69;5039066;28;20069;-78
2023/01/09 04:55:42;;;;;;;134.93;4.05;;;;;;;2.18;100.00;91235.09;5034747;28;20045;-78
2023/01/09 04:58:08;;;;;;;32.92;2.33;;;;;;;2.16;100.00;91228.66;5017107;28;20113;-77
2023/01/09 05:00:34;;;;;;;3.88;1.88;;;;;;;2.19;100.00;91221.16;5018453;28;20037;-77
2023/01/09 05:03:01;;;;;;;2.50;1.60;;;;;;;2.18;100.00;91211.09;5015093;28;20044;-77
2023/01/09 05:05:27;;;;;;;2.58;1.65;;;;;;;2.19;100.00;91204.91;5020832;28;20113;-77
2023/01/09 05:07:53;;;;;;;2.47;1.60;;;;;;;2.20;100.00;91219.34;5033850;28;20071;-77
2023/01/09 05:10:18;;;;;;;3.17;1.95;;;;;;;2.22;100.00;91220.63;5033015;28;20044;-77
2023/01/09 05:12:44;;;;;;;2.65;1.60;;;;;;;2.22;100.00;91230.94;5013368;28;20408;-78
2023/01/09 05:15:10;;;;;;;2.10;1.50;;;;;;;2.23;100.00;91231.72;5015006;28;20034;-77
2023/01/09 05:17:36;;;;;;;2.47;1.58;;;;;;;2.24;100.00;91238.44;5014473;28;20042;-77
2023/01/09 05:20:02;;;;;;;3.42;1.50;;;;;;;2.22;100.00;91236.13;5029642;28;20057;-77
2023/01/09 05:22:28;;;;;;;1.77;1.10;;;;;;;2.24;100.00;91233.28;5014506;28;20037;-78
2023/01/09 05:24:53;;;;;;;1.50;1.10;;;;;;;2.22;100.00;91228.38;5012920;28;20172;-78
2023/01/09 05:27:19;;;;;;;1.80;1.20;;;;;;;2.24;100.00;91228.13;5015180;28;20040;-77
2023/01/09 05:29:46;;;;;;;1.25;1.10;;;;;;;2.24;100.00;91228.88;5032597;28;20080;-77
2023/01/09 05:32:11;;;;;;;1.65;1.08;;;;;;;2.34;100.00;91222.13;5029297;28;20042;-77
2023/01/09 05:34:37;;;;;;;18.35;1.95;;;;;;;2.40;100.00;91226.22;5032601;28;20136;-78
2023/01/09 05:37:02;;;;;;;3.13;1.85;;;;;;;2.29;100.00;91228.09;5034472;28;20048;-77
2023/01/09 05:39:28;;;;;;;2.28;1.48;;;;;;;2.31;100.00;91238.16;5034541;28;20049;-77
2023/01/09 05:41:53;;;;;;;2.53;1.38;;;;;;;2.29;100.00;91241.00;5032541;28;20033;-77
2023/01/09 05:44:19;;;;;;;2.13;1.40;;;;;;;2.28;100.00;91247.97;5032165;28;20026;-77
2023/01/09 05:46:45;;;;;;;235.48;5.75;;;;;;;2.47;100.00;91252.53;5029290;28;20049;-77
2023/01/09 05:49:10;;;;;;;11.13;1.90;;;;;;;2.27;100.00;91243.88;5033058;28;20029;-77
2023/01/09 05:51:36;;;;;;;2.40;1.50;;;;;;;2.27;100.00;91243.88;5030078;28;20408;-77
2023/01/09 05:54:02;;;;;;;2.80;1.67;;;;;;;2.21;100.00;91247.50;5027427;28;20038;-77
2023/01/09 05:56:30;;;;;;;2.60;1.60;;;;;;;2.20;100.00;91253.69;5033397;28;20033;-77
2023/01/09 05:58:56;;;;;;;2.90;1.42;;;;;;;2.18;100.00;91253.16;5032330;28;20026;-78
2023/01/09 06:01:21;;;;;;;2.20;1.40;;;;;;;2.16;100.00;91250.09;5034368;28;20064;-79
2023/01/09 06:03:47;;;;;;;2.15;1.30;;;;;;;2.16;100.00;91242.38;5035753;28;20468;-79
2023/01/09 06:06:13;;;;;;;1.00;0.80;;;;;;;2.12;100.00;91236.19;5035873;28;20033;-79
2023/01/09 06:08:38;;;;;;;0.77;0.77;;;;;;;2.13;100.00;91247.28;5020242;28;20037;-79
2023/01/09 06:11:04;;;;;;;1.83;0.90;;;;;;;2.11;100.00;91239.00;5036470;28;20033;-78
2023/01/09 06:13:30;;;;;;;1.55;1.10;;;;;;;2.08;100.00;91232.56;5034280;28;20034;-78
2023/01/09 06:15:55;;;;;;;6.07;4.00;;;;;;;2.04;100.00;91228.97;5030437;28;20377;-77
2023/01/09 06:18:21;;;;;;;4.25;1.98;;;;;;;1.99;100.00;91227.19;5034113;28;20163;-78
2023/01/09 06:20:46;;;;;;;1.35;1.10;;;;;;;1.97;100.00;91228.50;5013830;28;20064;-77
2023/01/09 06:23:12;;;;;;;1.38;1.10;;;;;;;1.92;100.00;91225.94;5018153;28;20034;-76
2023/01/09 06:25:38;;;;;;;2.40;1.42;;;;;;;1.91;100.00;91219.97;5029775;28;20025;-77
2023/01/09 06:28:03;;;;;;;3.20;1.70;;;;;;;1.92;100.00;91224.13;5030876;28;20495;-76
2023/01/09 06:30:29;;;;;;;1.60;1.15;;;;;;;1.92;100.00;91218.19;5031938;28;20052;-77
2023/01/09 06:32:55;;;;;;;4.00;2.00;;;;;;;1.86;100.00;91207.88;5031978;28;20037;-77
2023/01/09 06:35:21;;;;;;;2.05;1.38;;;;;;;1.92;100.00;91215.63;5030745;28;20095;-78
2023/01/09 06:37:47;;;;;;;2.80;1.60;;;;;;;1.94;100.00;91213.53;5042362;28;20056;-79
2023/01/09 06:43:36;;;;;;;1.52;0.90;;;;;;;1.87;100.00;91214.59;5046265;28;20391;-80
2023/01/09 06:48:44;;;;;;;3.00;1.70;;;;;;;1.90;100.00;91209.94;5043980;28;20448;-79
2023/01/09 06:51:09;;;;;;;2.50;1.38;;;;;;;1.91;100.00;91206.31;5041773;28;20555;-77
2023/01/09 06:53:35;;;;;;;1.30;1.02;;;;;;;1.97;100.00;91208.59;5038294;28;20067;-77
2023/01/09 06:56:03;;;;;;;0.85;0.85;;;;;;;2.02;100.00;91212.97;5036539;28;20490;-78
2023/01/09 06:58:29;;;;;;;0.93;0.80;;;;;;;2.00;100.00;91209.88;5019642;28;20025;-78
2023/01/09 07:00:55;;;;;;;1.00;0.90;;;;;;;2.02;100.00;91212.97;5035855;28;20038;-76
2023/01/09 07:03:21;;;;;;;1.30;1.00;;;;;;;1.99;100.00;91216.09;5035950;28;20034;-77
2023/01/09 07:05:48;;;;;;;0.90;0.90;;;;;;;1.97;100.00;91224.09;5035818;28;20041;-78
2023/01/09 07:08:14;;;;;;;0.88;0.77;;;;;;;1.97;100.00;91218.94;5036623;28;20033;-78
2023/01/09 07:10:41;;;;;;;0.98;0.80;;;;;;;2.00;100.00;91212.47;5036246;28;20117;-78
2023/01/09 07:13:07;;;;;;;0.77;0.68;;;;;;;2.03;100.00;91212.72;5037944;28;20041;-77
2023/01/09 07:15:33;;;;;;;1.05;0.80;;;;;;;2.02;100.00;91212.97;5034385;28;20042;-77
2023/01/09 07:17:59;;;;;;;2.45;1.52;;;;;;;2.09;100.00;91218.63;5033396;28;20041;-78
2023/01/09 07:20:43;;;;;;;1.48;1.05;;;;;;;2.14;100.00;91230.72;5035002;28;20388;-79
2023/01/09 07:23:12;;;;;;;6.05;1.48;;;;;;;2.18;100.00;91229.94;5036451;28;20114;-78
2023/01/09 07:25:39;;;;;;;1.88;1.00;;;;;;;2.25;100.00;91237.41;5035018;28;20046;-80
2023/01/09 07:28:05;;;;;;;2.30;1.50;;;;;;;2.34;100.00;91242.78;5031743;28;20026;-79
2023/01/09 07:30:32;;;;;;;2.80;1.60;;;;;;;2.41;100.00;91233.72;5017786;28;20049;-79
2023/01/09 07:32:58;;;;;;;2.03;1.27;;;;;;;2.60;100.00;91225.34;5019528;28;20064;-78
2023/01/09 07:35:24;;;;;;;1.52;1.20;;;;;;;3.47;100.00;91225.47;5038215;28;20041;-78
2023/01/09 07:37:50;;;;;;;1.92;0.85;;;;;;;4.63;100.00;91213.25;5026455;28;20036;-79
2023/01/09 07:40:16;;;;;;;0.60;0.60;;;;;;;5.87;100.00;91219.88;5038974;28;20056;-78
2023/01/09 07:42:42;;;;;;;0.55;0.52;;;;;;;6.98;100.00;91217.94;5038433;28;20041;-80
2023/01/09 07:45:08;;;;;;;1.85;1.30;;;;;;;7.78;100.00;91221.53;5038940;28;20037;-78
2023/01/09 07:47:33;;;;;;;1.38;1.10;;;;;;;8.49;100.00;91213.69;5038806;28;20121;-79
2023/01/09 07:49:59;;;;;;;19.73;1.70;;;;;;;7.57;100.00;91229.06;5037703;28;20037;-79
2023/01/09 07:52:24;;;;;;;1.95;1.35;;;;;;;7.21;100.00;91219.50;5038286;28;20120;-79
2023/01/09 07:54:50;;;;;;;2.67;1.05;;;;;;;7.60;100.00;91230.31;5037154;28;20100;-80
2023/01/09 07:57:16;;;;;;;1.70;1.20;;;;;;;7.77;100.00;91234.84;5019692;28;20045;-80
2023/01/09 07:59:41;;;;;;;1.40;1.10;;;;;;;7.67;100.00;91247.03;5034912;28;20128;-80
2023/01/09 08:02:08;;;;;;;1.70;1.20;;;;;;;7.43;100.00;91246.59;5037911;28;20068;-80
2023/01/09 08:04:34;;;;;;;1.20;1.02;;;;;;;7.49;100.00;91242.81;5038557;28;20043;-79
2023/01/09 08:07:01;;;;;;;5.88;2.60;;;;;;;7.44;100.00;91254.09;5038378;28;20124;-80
2023/01/09 08:09:27;;;;;;;3.70;2.13;;;;;;;6.72;100.00;91257.50;5037714;28;20037;-80
2023/01/09 08:11:56;;;;;;;1.13;1.02;;;;;;;6.59;100.00;91247.91;5034470;28;20104;-79
2023/01/09 08:14:22;;;;;;;1.83;1.27;;;;;;;6.13;100.00;91257.38;5037951;28;20087;-79
2023/01/09 08:17:08;;;;;;;2.47;1.50;;;;;;;5.97;100.00;91258.69;5037876;28;20025;-80
2023/01/09 08:19:33;;;;;;;2.10;1.40;;;;;;;6.60;100.00;91265.81;5038023;28;20045;-81
2023/01/09 08:21:59;;;;;;;1.30;1.17;;;;;;;6.54;100.00;91266.22;5038164;28;20079;-83
2023/01/09 08:24:24;;;;;;;2.75;1.40;;;;;;;8.62;100.00;91258.19;5039468;28;20048;-81
2023/01/09 08:26:50;;;;;;;2.22;1.50;;;;;;;9.96;100.00;91258.38;5039232;28;20397;-80
2023/01/09 08:29:16;;;;;;;1.75;1.30;;;;;;;11.82;100.00;91244.34;5039069;28;20025;-80
2023/01/09 08:31:41;;;;;;;2.42;1.50;;;;;;;12.80;92.92;91242.97;5038441;28;20051;-82
2023/01/09 08:34:07;;;;;;;4.10;2.70;;;;;;;13.59;82.96;91253.13;5035426;28;20156;-82
2023/01/09 08:36:34;;;;;;;2.90;1.73;;;;;;;13.01;81.92;91259.34;5040394;28;20060;-82
2023/01/09 08:38:59;;;;;;;1.95;1.35;;;;;;;12.58;82.26;91263.31;5038646;28;20045;-82
2023/01/09 08:47:21;;;;;;;6.10;1.50;;;;;;;9.67;94.16;91264.25;5039423;28;20058;-81
2023/01/09 08:49:46;;;;;;;13.63;1.90;;;;;;;9.15;98.98;91265.03;5038993;28;20151;-82
2023/01/09 08:52:31;;;;;;;2.35;1.38;;;;;;;8.18;100.00;91276.28;5038248;28;20053;-81
2023/01/09 08:54:57;;;;;;;2.38;1.48;;;;;;;8.87;100.00;91270.56;5039479;28;20521;-81
2023/01/09 08:57:23;;;;;;;3.70;2.20;;;;;;;9.08;100.00;91277.78;5017808;28;20054;-82
2023/01/09 08:59:48;;;;;;;4.47;1.85;;;;;;;9.34;100.00;91270.75;5019739;28;20041;-82
2023/01/09 09:02:14;;;;;;;3.22;2.05;;;;;;;9.82;100.00;91271.63;5026841;28;20040;-82
2023/01/09 09:08:06;;;;;;;1.52;0.98;;;;;;;9.72;93.57;91283.16;5037398;28;20541;-81
2023/01/09 09:10:31;;;;;;;3.70;2.38;;;;;;;9.93;100.00;91272.84;5049406;28;20116;-81
2023/01/09 09:12:58;;;;;;;2.88;1.98;;;;;;;9.25;100.00;91282.25;5047900;28;20060;-81
2023/01/09 09:15:25;;;;;;;4.15;2.03;;;;;;;8.92;100.00;91280.84;5038216;28;20037;-81
2023/01/09 09:17:53;;;;;;;1.35;1.10;;;;;;;8.84;99.83;91278.22;5039086;28;20558;-81
2023/01/09 09:20:20;;;;;;;1.58;1.23;;;;;;;8.73;100.00;91281.09;5034425;28;20396;-81
2023/01/09 09:22:47;;;;;;;2.60;1.08;;;;;;;8.92;100.00;91283.44;5016432;28;20503;-80
2023/01/09 09:25:15;;;;;;;1.75;1.25;;;;;;;8.90;100.00;91272.53;5017227;28;20037;-81
2023/01/09 09:27:41;;;;;;;2.08;1.30;;;;;;;9.04;100.00;91285.44;5038581;28;20044;-81
2023/01/09 09:30:08;;;;;;;2.22;1.42;;;;;;;9.32;100.00;91285.94;5038070;28;20115;-81
2023/01/09 09:32:34;;;;;;;3.03;1.58;;;;;;;9.41;100.00;91285.16;5036077;28;20051;-81
2023/01/09 09:34:59;;;;;;;3.20;1.30;;;;;;;9.60;100.00;91290.84;5036795;28;20033;-81
2023/01/09 09:37:26;;;;;;;2.08;1.40;;;;;;;9.53;100.00;91290.56;5035971;28;20041;-81
2023/01/09 09:39:52;;;;;;;4.28;1.50;;;;;;;9.28;100.00;91295.47;5035817;28;20518;-81
2023/01/09 09:45:20;;;;;;;5.05;2.97;;;;;;;8.40;100.00;91290.31;5037471;28;20056;-81
2023/01/09 09:47:58;;;;;;;5.05;2.50;;;;;;;8.47;100.00;91290.69;5038103;28;20061;-81
2023/01/09 09:50:48;;;;;;;3.60;2.10;;;;;;;8.45;100.00;91291.00;5036069;28;20041;-81
2023/01/09 09:53:18;;;;;;;5.97;1.90;;;;;;;8.40;100.00;91285.09;5036713;28;20045;-81
2023/01/09 09:55:47;;;;;;;9.93;2.80;;;;;;;8.37;100.00;91283.09;5036316;28;20030;-82
2023/01/09 09:58:21;;;;;;;5.13;2.92;;;;;;;8.07;100.00;91283.59;5036361;28;20064;-82
2023/01/09 10:00:50;;;;;;;4.55;2.47;;;;;;;7.99;100.00;91292.13;5036690;28;20162;-81
2023/01/09 10:03:37;;;;;;;5.53;2.72;;;;;;;8.06;100.00;91300.31;5037298;28;20486;-82
2023/01/09 10:06:51;;;;;;;4.22;2.40;;;;;;;8.35;100.00;91293.81;5037792;28;20116;-81
2023/01/09 10:09:23;;;;;;;7.47;3.80;;;;;;;8.52;100.00;91286.09;5032127;28;20041;-81
2023/01/09 10:12:08;;;;;;;4.97;3.17;;;;;;;8.40;100.00;91291.13;5019013;28;20061;-81
2023/01/09 10:14:34;;;;;;;3.75;2.30;;;;;;;8.40;100.00;91282.50;5035620;28;20399;-81
2023/01/09 10:17:25;;;;;;;5.53;2.30;;;;;;;8.70;100.00;91286.91;5035517;28;20041;-81
2023/01/09 10:20:03;;;;;;;3.65;1.90;;;;;;;9.08;100.00;91285.63;5031470;28;20033;-80
2023/01/09 10:22:48;;;;;;;3.47;1.85;;;;;;;9.37;100.00;91288.41;5036583;28;20029;-81
2023/01/09 10:25:21;;;;;;;1.70;1.20;;;;;;;9.66;91.52;91289.63;5034601;28;20037;-81
2023/01/09 10:28:08;;;;;;;3.08;1.70;;;;;;;9.92;93.98;91281.75;5037091;28;20032;-82
2023/01/09 10:30:38;;;;;;;2.03;0.95;;;;;;;10.27;75.37;91267.78;5036952;28;20042;-82
2023/01/09 10:33:28;;;;;;;0.70;0.70;;;;;;;10.59;63.83;91262.00;5034431;28;20095;-82
2023/01/09 10:36:29;;;;;;;0.85;0.60;;;;;;;10.77;59.40;91256.69;5034273;28;20037;-83
2023/01/09 10:39:00;;;;;;;5.35;1.15;;;;;;;10.79;60.27;91263.16;5038349;28;20029;-82
2023/01/09 10:41:53;;;;;;;3.63;1.75;;;;;;;10.98;72.30;91252.25;5046985;28;20045;-80
2023/01/09 10:44:21;;;;;;;4.90;2.78;;;;;;;10.62;78.72;91261.38;5041203;28;20029;-80
2023/01/09 10:46:55;;;;;;;5.25;2.60;;;;;;;10.47;77.17;91250.66;5040378;28;20333;-81
2023/01/09 10:49:22;;;;;;;2.97;1.30;;;;;;;10.26;68.27;91243.50;5034982;28;20364;-81
2023/01/09 10:52:00;;;;;;;10.75;6.57;;;;;;;10.62;77.42;91237.06;5035660;28;20038;-81
2023/01/09 10:54:28;;;;;;;0.90;0.80;;;;;;;10.93;54.01;91226.25;5034653;28;20037;-80
2023/01/09 10:57:11;;;;;;;4.55;2.10;;;;;;;11.13;52.69;91219.50;5034237;28;20114;-82
2023/01/09 10:59:38;;;;;;;3.03;1.50;;;;;;;11.45;64.69;91227.72;5035374;28;20021;-81
2023/01/09 11:02:03;;;;;;;3.38;1.60;;;;;;;11.27;70.25;91223.72;5036663;28;20036;-82
2023/01/09 11:04:33;;;;;;;3.20;1.67;;;;;;;11.31;70.68;91222.75;5035323;28;20377;-80
2023/01/09 11:07:04;;;;;;;2.05;1.30;;;;;;;11.59;66.63;91217.72;5033922;28;20041;-81
2023/01/09 11:09:57;;;;;;;2.83;1.65;;;;;;;11.19;68.88;91220.84;5018063;28;20037;-80
2023/01/09 11:12:31;;;;;;;2.42;1.40;;;;;;;11.15;67.68;91224.41;5032260;28;20067;-80
2023/01/09 11:15:15;;;;;;;3.20;1.52;;;;;;;11.40;73.07;91225.31;5034940;28;20060;-80
2023/01/09 11:17:45;;;;;;;2.55;1.55;;;;;;;11.45;75.15;91231.09;5033515;28;20438;-81
2023/01/09 11:20:30;;;;;;;3.30;1.98;;;;;;;11.43;65.33;91228.03;5033133;28;20056;-81
2023/01/09 11:22:57;;;;;;;1.30;1.10;;;;;;;10.81;65.29;91216.47;5033325;28;20047;-80
2023/01/09 11:25:26;;;;;;;1.70;1.10;;;;;;;10.95;60.27;91226.69;5032904;28;20025;-81
2023/01/09 11:28:03;;;;;;;1.38;1.10;;;;;;;11.32;55.25;91219.03;5031802;28;20104;-82
2023/01/09 11:30:32;;;;;;;2.00;1.23;;;;;;;11.37;60.30;91218.84;5033607;28;20064;-82
2023/01/09 11:32:58;;;;;;;2.80;1.05;;;;;;;11.08;58.39;91208.44;5032607;28;20680;-82
2023/01/09 11:35:30;;;;;;;0.60;0.60;;;;;;;10.53;47.29;91200.47;5026642;28;20068;-79
2023/01/09 11:38:19;;;;;;;1.65;1.25;;;;;;;10.38;46.50;91201.78;5012226;28;20419;-80
2023/01/09 11:40:59;;;;;;;4.90;0.90;;;;;;;9.92;51.41;91215.63;5012467;28;20034;-79
2023/01/09 11:43:31;;;;;;;1.10;1.00;;;;;;;9.73;49.03;91218.59;5017294;28;20561;-81
2023/01/09 11:45:59;;;;;;;1.15;0.70;;;;;;;9.58;49.44;91206.78;5020213;28;20038;-83
2023/01/09 11:48:30;;;;;;;0.70;0.70;;;;;;;9.69;50.78;91210.59;5024092;28;20094;-81
2023/01/09 11:50:58;;;;;;;1.75;0.95;;;;;;;9.89;48.15;91203.19;5035234;28;20109;-82
2023/01/09 11:53:25;;;;;;;2.63;1.38;;;;;;;9.82;51.49;91206.28;5034784;28;20044;-82
2023/01/09 11:56:00;;;;;;;1.45;1.10;;;;;;;9.59;46.09;91205.69;5035180;28;20552;-81
2023/01/09 11:58:33;;;;;;;3.50;2.13;;;;;;;9.49;49.97;91200.81;5030368;28;20057;-81
2023/01/09 12:01:07;;;;;;;3.20;1.70;;;;;;;9.54;50.17;91201.41;5032867;28;20038;-82
2023/01/09 12:03:39;;;;;;;3.30;1.73;;;;;;;9.37;46.54;91204.81;5030904;28;20037;-81
2023/01/09 12:06:43;;;;;;;5.95;1.05;;;;;;;9.58;46.85;91206.78;5033022;28;20452;-81